createdAt,value
2023-04-03T00:02:07.356Z,2.65
2023-04-03T00:04:36.042Z,2.55
2023-04-03T00:07:03.921Z,2.75
2023-04-03T00:09:31.131Z,2.63
2023-04-03T00:11:58.318Z,2.38
2023-04-03T00:14:25.362Z,2.40
2023-04-03T00:16:52.542Z,2.63
2023-04-03T00:19:19.716Z,2.60
2023-04-03T00:21:46.755Z,2.53
2023-04-03T00:24:13.703Z,2.60
2023-04-03T00:26:40.884Z,2.60
2023-04-03T00:29:08.038Z,2.60
2023-04-03T00:31:35.117Z,2.60
2023-04-03T00:34:02.130Z,2.50
2023-04-03T00:36:29.783Z,2.55
2023-04-03T00:38:56.936Z,2.53
2023-04-03T00:41:24.075Z,2.53
2023-04-03T00:43:51.141Z,2.60
2023-04-03T00:46:18.623Z,2.53
2023-04-03T00:48:46.669Z,2.58
2023-04-03T00:51:26.356Z,2.97
2023-04-03T00:53:56.865Z,3.10
2023-04-03T00:56:26.076Z,2.78
2023-04-03T00:59:19.031Z,2.67
2023-04-03T01:01:46.413Z,2.30
2023-04-03T01:04:34.080Z,2.40
2023-04-03T01:07:13.657Z,2.38
2023-04-03T01:09:41.261Z,2.20
2023-04-03T01:12:18.258Z,2.55
2023-04-03T01:14:47.414Z,2.58
2023-04-03T01:17:29.770Z,2.38
2023-04-03T01:20:09.987Z,2.70
2023-04-03T01:23:03.293Z,2.30
2023-04-03T01:25:30.397Z,2.60
2023-04-03T01:28:00.023Z,2.92
2023-04-03T01:30:31.242Z,2.45
2023-04-03T01:32:59.596Z,2.50
2023-04-03T01:35:26.674Z,3.28
2023-04-03T01:37:54.973Z,2.80
2023-04-03T01:40:22.028Z,3.13
2023-04-03T01:42:49.066Z,2.63
2023-04-03T01:45:16.318Z,2.78
2023-04-03T01:47:43.529Z,3.03
2023-04-03T01:50:10.820Z,2.75
2023-04-03T01:52:38.008Z,2.88
2023-04-03T01:55:06.495Z,3.00
2023-04-03T01:57:33.651Z,2.92
2023-04-03T02:00:00.826Z,2.80
2023-04-03T02:02:27.875Z,3.15
2023-04-03T02:04:55.955Z,2.75
2023-04-03T02:07:23.468Z,3.00
2023-04-03T02:09:50.377Z,3.28
2023-04-03T02:12:17.360Z,2.88
2023-04-03T02:14:44.407Z,2.92
2023-04-03T02:17:12.747Z,3.30
2023-04-03T02:19:39.701Z,2.92
2023-04-03T02:22:06.740Z,3.03
2023-04-03T02:24:33.747Z,3.40
2023-04-03T02:27:00.838Z,2.70
2023-04-03T02:29:28.136Z,2.90
2023-04-03T02:31:55.141Z,3.15
2023-04-03T02:34:23.380Z,3.13
2023-04-03T02:36:51.729Z,3.30
2023-04-03T02:39:19.938Z,3.30
2023-04-03T02:41:47.007Z,3.13
2023-04-03T02:44:20.055Z,2.97
2023-04-03T02:46:47.575Z,3.45
2023-04-03T02:49:16.715Z,2.70
2023-04-03T02:51:43.855Z,2.90
2023-04-03T02:54:11.549Z,2.88
2023-04-03T02:56:41.651Z,3.10
2023-04-03T02:59:08.707Z,3.00
2023-04-03T03:01:38.448Z,2.60
2023-04-03T03:04:06.033Z,3.17
2023-04-03T03:06:33.015Z,3.10
2023-04-03T03:09:00.117Z,3.28
2023-04-03T03:11:27.129Z,2.75
2023-04-03T03:13:54.115Z,3.38
2023-04-03T03:16:21.339Z,2.45
2023-04-03T03:18:48.339Z,3.05
2023-04-03T03:21:15.358Z,3.25
2023-04-03T03:23:42.530Z,3.80
2023-04-03T03:26:11.009Z,3.03
2023-04-03T03:28:39.242Z,3.17
2023-04-03T03:31:07.260Z,3.20
2023-04-03T03:33:36.153Z,3.38
2023-04-03T03:36:03.430Z,3.63
2023-04-03T03:38:30.539Z,3.38
2023-04-03T03:40:59.279Z,3.45
2023-04-03T03:43:26.420Z,3.65
2023-04-03T03:45:54.742Z,3.58
2023-04-03T03:48:24.222Z,3.60
2023-04-03T03:50:51.600Z,3.65
2023-04-03T03:53:21.512Z,3.47
2023-04-03T03:55:51.664Z,3.33
2023-04-03T03:58:21.612Z,3.30
2023-04-03T04:00:48.574Z,3.25
2023-04-03T04:03:16.194Z,3.53
2023-04-03T04:05:46.098Z,3.30
2023-04-03T04:08:13.744Z,3.72
2023-04-03T04:10:42.297Z,3.20
2023-04-03T04:13:09.972Z,3.45
2023-04-03T04:15:37.449Z,3.20
2023-04-03T04:18:04.855Z,3.20
2023-04-03T04:20:32.915Z,3.70
2023-04-03T04:23:00.093Z,3.58
2023-04-03T04:25:27.782Z,3.20
2023-04-03T04:27:54.875Z,3.67
2023-04-03T04:30:21.932Z,4.50
2023-04-03T04:32:50.757Z,3.13
2023-04-03T04:35:18.322Z,4.55
2023-04-03T04:37:48.369Z,3.90
2023-04-03T04:40:16.304Z,3.97
2023-04-03T04:42:43.795Z,3.85
2023-04-03T04:45:11.364Z,4.00
2023-04-03T04:47:40.378Z,3.50
2023-04-03T04:50:08.604Z,4.03
2023-04-03T04:52:35.867Z,4.00
2023-04-03T04:55:02.920Z,3.90
2023-04-03T04:57:30.086Z,4.20
2023-04-03T04:59:59.270Z,3.97
2023-04-03T05:02:26.426Z,4.47
2023-04-03T05:04:54.942Z,4.53
2023-04-03T05:07:27.476Z,4.15
2023-04-03T05:09:55.297Z,4.13
2023-04-03T05:12:23.124Z,4.63
2023-04-03T05:14:55.811Z,4.57
2023-04-03T05:17:22.855Z,4.65
2023-04-03T05:19:53.433Z,4.30
2023-04-03T05:22:22.918Z,4.47
2023-04-03T05:24:52.966Z,4.32
2023-04-03T05:27:21.837Z,4.35
2023-04-03T05:29:54.000Z,4.07
2023-04-03T05:32:24.004Z,4.43
2023-04-03T05:35:00.010Z,4.40
2023-04-03T05:37:28.570Z,4.13
2023-04-03T05:39:56.969Z,4.05
2023-04-03T05:42:24.303Z,4.47
2023-04-03T05:44:51.476Z,4.15
2023-04-03T05:47:19.284Z,4.18
2023-04-03T05:49:46.565Z,3.95
2023-04-03T05:52:23.831Z,3.90
2023-04-03T05:54:52.348Z,3.92
2023-04-03T05:57:24.908Z,4.22
2023-04-03T05:59:52.735Z,4.25
2023-04-03T06:02:22.345Z,3.75
2023-04-03T06:04:50.446Z,4.13
2023-04-03T06:07:24.627Z,4.03
2023-04-03T06:09:52.343Z,3.78
2023-04-03T06:12:19.777Z,4.22
2023-04-03T06:14:46.865Z,4.20
2023-04-03T06:17:16.409Z,3.88
2023-04-03T06:19:43.651Z,4.32
2023-04-03T06:22:10.724Z,4.50
2023-04-03T06:24:39.201Z,4.40
2023-04-03T06:27:06.358Z,4.57
2023-04-03T06:29:33.621Z,3.90
2023-04-03T06:32:00.638Z,4.38
2023-04-03T06:34:27.703Z,4.13
2023-04-03T06:36:55.685Z,4.85
2023-04-03T06:39:23.774Z,3.95
2023-04-03T06:41:52.142Z,3.88
2023-04-03T06:44:27.193Z,4.32
2023-04-03T06:46:55.470Z,4.28
2023-04-03T06:49:22.726Z,4.40
2023-04-03T06:51:49.747Z,4.13
2023-04-03T06:54:16.758Z,4.63
2023-04-03T06:56:43.915Z,4.30
2023-04-03T06:59:12.954Z,4.55
2023-04-03T07:01:39.963Z,5.25
2023-04-03T07:04:07.798Z,4.22
2023-04-03T07:06:35.662Z,4.57
2023-04-03T07:09:02.780Z,4.65
2023-04-03T07:11:29.794Z,4.25
2023-04-03T07:13:58.270Z,4.40
2023-04-03T07:16:25.372Z,4.50
2023-04-03T07:18:52.597Z,4.93
2023-04-03T07:21:19.602Z,4.22
2023-04-03T07:26:14.155Z,4.75
2023-04-03T07:28:42.558Z,4.20
2023-04-03T07:31:13.215Z,4.30
2023-04-03T07:33:40.728Z,4.35
2023-04-03T07:36:08.367Z,4.80
2023-04-03T07:38:36.603Z,4.88
2023-04-03T07:41:04.159Z,5.25
2023-04-03T07:43:31.660Z,5.45
2023-04-03T07:45:58.789Z,4.88
2023-04-03T07:48:26.547Z,5.38
2023-04-03T07:50:53.606Z,5.05
2023-04-03T07:53:21.011Z,5.15
2023-04-03T07:55:48.956Z,4.55
2023-04-03T07:58:18.130Z,4.72
2023-04-03T08:00:45.595Z,5.00
2023-04-03T08:03:12.996Z,6.38
2023-04-03T08:05:44.206Z,5.63
2023-04-03T08:08:16.923Z,5.13
2023-04-03T08:10:44.661Z,4.68
2023-04-03T08:13:11.643Z,5.00
2023-04-03T08:15:38.870Z,4.90
2023-04-03T08:18:06.061Z,4.50
2023-04-03T08:20:32.993Z,4.43
2023-04-03T08:23:00.058Z,4.13
2023-04-03T08:25:27.145Z,4.70
2023-04-03T08:27:54.205Z,5.13
2023-04-03T08:30:21.405Z,4.57
2023-04-03T08:32:48.559Z,5.05
2023-04-03T08:35:15.598Z,5.80
2023-04-03T08:37:42.656Z,5.60
2023-04-03T08:40:14.572Z,5.53
2023-04-03T08:43:05.065Z,5.22
2023-04-03T08:45:51.516Z,6.60
2023-04-03T08:48:21.290Z,4.03
2023-04-03T08:50:53.708Z,4.72
2023-04-03T08:53:22.971Z,4.45
2023-04-03T08:55:51.098Z,4.10
2023-04-03T08:58:26.760Z,6.18
2023-04-03T09:01:07.405Z,4.57
2023-04-03T09:03:37.519Z,5.25
2023-04-03T09:06:08.538Z,4.95
2023-04-03T09:08:45.538Z,4.95
2023-04-03T09:11:23.042Z,4.70
2023-04-03T09:16:39.577Z,3.92
2023-04-03T09:19:25.239Z,4.35
2023-04-03T09:21:52.378Z,4.43
2023-04-03T09:24:19.357Z,4.57
2023-04-03T09:26:55.230Z,4.57
2023-04-03T09:29:23.809Z,4.63
2023-04-03T09:32:02.667Z,4.57
2023-04-03T09:34:33.042Z,4.50
2023-04-03T09:37:06.743Z,4.07
2023-04-03T09:39:49.307Z,4.47
2023-04-03T09:42:20.137Z,4.07
2023-04-03T09:44:57.540Z,4.22
2023-04-03T09:47:29.085Z,4.10
2023-04-03T09:50:15.043Z,6.65
2023-04-03T09:52:43.648Z,3.95
2023-04-03T09:55:27.830Z,4.45
2023-04-03T09:57:58.683Z,3.90
2023-04-03T10:00:32.396Z,3.67
2023-04-03T10:02:59.558Z,4.07
2023-04-03T10:05:36.641Z,4.10
2023-04-03T10:08:12.698Z,3.90
2023-04-03T10:10:40.509Z,4.15
2023-04-03T10:13:12.244Z,3.88
2023-04-03T10:15:47.536Z,3.20
2023-04-03T10:18:34.348Z,3.58
2023-04-03T10:21:09.698Z,3.08
2023-04-03T10:23:45.743Z,3.42
2023-04-03T10:26:29.645Z,3.38
2023-04-03T10:31:54.381Z,2.72
2023-04-03T10:36:58.330Z,3.10
2023-04-03T10:39:34.430Z,2.55
2023-04-03T10:42:33.969Z,2.33
2023-04-03T10:45:30.351Z,2.75
2023-04-03T10:48:12.425Z,2.72
2023-04-03T10:51:01.501Z,2.67
2023-04-03T10:53:44.236Z,2.60
2023-04-03T10:56:19.998Z,3.08
2023-04-03T10:58:50.084Z,3.20
2023-04-03T11:01:22.265Z,3.60
2023-04-03T11:03:53.026Z,2.10
2023-04-03T11:06:20.843Z,2.35
2023-04-03T11:09:08.623Z,4.30
2023-04-03T11:11:36.808Z,3.25
2023-04-03T11:14:11.670Z,2.40
2023-04-03T11:16:53.607Z,3.03
2023-04-03T11:19:25.324Z,2.08
2023-04-03T11:22:04.770Z,2.45
2023-04-03T11:24:33.398Z,2.30
2023-04-03T11:27:01.225Z,2.50
2023-04-03T11:29:35.586Z,2.00
2023-04-03T11:32:28.684Z,2.53
2023-04-03T11:34:59.677Z,2.22
2023-04-03T11:37:35.123Z,2.50
2023-04-03T11:40:24.148Z,1.85
2023-04-03T11:42:56.666Z,2.33
2023-04-03T11:45:24.603Z,2.20
2023-04-03T11:48:00.991Z,2.00
2023-04-03T11:50:36.167Z,2.15
2023-04-03T11:53:09.573Z,2.13
2023-04-03T11:55:51.859Z,2.47
2023-04-03T11:58:19.505Z,2.50
2023-04-03T12:00:52.372Z,2.47
2023-04-03T12:03:28.869Z,1.63
2023-04-03T12:06:08.131Z,1.90
2023-04-03T12:08:35.414Z,1.20
2023-04-03T12:11:14.349Z,2.30
2023-04-03T12:13:53.734Z,1.60
2023-04-03T12:16:23.861Z,1.38
2023-04-03T12:18:51.666Z,1.60
2023-04-03T12:21:20.814Z,3.67
2023-04-03T12:24:06.973Z,2.97
2023-04-03T12:26:52.765Z,1.90
2023-04-03T12:29:23.656Z,2.30
2023-04-03T12:32:24.751Z,4.40
2023-04-03T12:35:26.204Z,1.70
2023-04-03T12:38:17.898Z,1.55
2023-04-03T12:40:51.021Z,1.50
2023-04-03T12:43:23.928Z,1.60
2023-04-03T12:46:13.052Z,1.63
2023-04-03T12:48:40.029Z,1.75
2023-04-03T12:51:07.084Z,1.75
2023-04-03T12:53:35.747Z,1.63
2023-04-03T12:56:33.624Z,1.80
2023-04-03T12:59:17.751Z,1.55
2023-04-03T13:01:45.355Z,2.00
2023-04-03T13:04:13.710Z,2.13
2023-04-03T13:06:44.330Z,1.60
2023-04-03T13:09:37.559Z,1.63
2023-04-03T13:12:11.641Z,1.45
2023-04-03T13:14:38.633Z,1.60
2023-04-03T13:17:07.917Z,1.50
2023-04-03T13:19:34.884Z,1.63
2023-04-03T13:22:40.543Z,1.92
2023-04-03T13:25:09.030Z,1.60
2023-04-03T13:27:36.016Z,1.60
2023-04-03T13:30:04.406Z,1.35
2023-04-03T13:32:32.345Z,1.60
2023-04-03T13:35:08.167Z,1.30
2023-04-03T13:37:38.883Z,1.50
2023-04-03T13:40:08.831Z,1.50
2023-04-03T13:42:41.643Z,1.67
2023-04-03T13:45:27.337Z,2.10
2023-04-03T13:48:12.834Z,2.65
2023-04-03T13:51:03.481Z,6.13
2023-04-03T13:53:31.650Z,3.42
2023-04-03T13:56:00.202Z,1.50
2023-04-03T13:58:28.665Z,1.70
2023-04-03T14:01:12.340Z,2.20
2023-04-03T14:06:07.128Z,1.67
2023-04-03T14:08:42.378Z,1.48
2023-04-03T14:11:23.447Z,1.75
2023-04-03T14:13:51.367Z,1.88
2023-04-03T14:16:20.736Z,1.65
2023-04-03T14:18:48.168Z,1.88
2023-04-03T14:21:16.623Z,1.35
2023-04-03T14:23:43.680Z,1.40
2023-04-03T14:26:17.386Z,1.60
2023-04-03T14:28:46.200Z,2.90
2023-04-03T14:31:13.625Z,1.73
2023-04-03T14:33:41.044Z,1.70
2023-04-03T14:36:26.379Z,1.58
2023-04-03T14:38:53.617Z,2.03
2023-04-03T14:41:21.781Z,2.53
2023-04-03T14:43:48.927Z,1.90
2023-04-03T14:46:54.377Z,1.63
2023-04-03T14:49:26.397Z,1.85
2023-04-03T14:51:53.790Z,1.75
2023-04-03T14:54:26.510Z,1.92
2023-04-03T14:56:54.464Z,1.70
2023-04-03T14:59:22.562Z,1.80
2023-04-03T15:01:49.763Z,2.25
2023-04-03T15:04:18.488Z,1.90
2023-04-03T15:06:45.811Z,1.92
2023-04-03T15:09:23.693Z,1.90
2023-04-03T15:11:51.578Z,1.67
2023-04-03T15:14:29.741Z,1.83
2023-04-03T15:17:05.896Z,1.60
2023-04-03T15:19:36.360Z,2.10
2023-04-03T15:22:03.336Z,2.08
2023-04-03T15:24:30.532Z,2.10
2023-04-03T15:26:57.467Z,2.33
2023-04-03T15:29:24.478Z,2.75
2023-04-03T15:31:54.632Z,2.35
2023-04-03T15:34:23.046Z,1.80
2023-04-03T15:36:53.461Z,1.80
2023-04-03T15:39:21.765Z,1.70
2023-04-03T15:41:48.738Z,1.65
2023-04-03T15:44:18.718Z,1.88
2023-04-03T15:46:49.863Z,2.00
2023-04-03T15:49:17.056Z,2.33
2023-04-03T15:51:44.001Z,2.85
2023-04-03T15:54:11.231Z,2.22
2023-04-03T15:56:38.173Z,2.17
2023-04-03T15:59:05.209Z,1.50
2023-04-03T16:01:32.421Z,1.80
2023-04-03T16:03:59.669Z,1.95
2023-04-03T16:06:26.836Z,2.30
2023-04-03T16:08:58.090Z,1.73
2023-04-03T16:13:52.730Z,3.05
2023-04-03T16:16:19.847Z,2.63
2023-04-03T16:18:47.933Z,3.45
2023-04-03T16:21:15.345Z,1.80
2023-04-03T16:23:42.397Z,2.05
2023-04-03T16:26:09.483Z,1.92
2023-04-03T16:28:36.428Z,1.70
2023-04-03T16:31:03.516Z,2.00
2023-04-03T16:33:31.101Z,2.00
2023-04-03T16:35:58.591Z,2.00
2023-04-03T16:38:25.789Z,1.23
2023-04-03T16:40:57.529Z,2.22
2023-04-03T16:43:26.703Z,1.52
2023-04-03T16:45:53.666Z,2.38
2023-04-03T16:48:20.794Z,1.80
2023-04-03T16:50:49.990Z,1.75
2023-04-03T16:53:17.379Z,1.60
2023-04-03T16:55:44.367Z,1.58
2023-04-03T16:58:11.450Z,1.65
2023-04-03T17:00:38.948Z,1.70
2023-04-03T17:03:06.147Z,2.90
2023-04-03T17:05:33.182Z,2.13
2023-04-03T17:08:01.749Z,1.90
2023-04-03T17:10:29.231Z,2.58
2023-04-03T17:12:56.252Z,2.60
2023-04-03T17:15:24.831Z,3.58
2023-04-03T17:17:51.971Z,4.85
2023-04-03T17:20:19.194Z,1.77
2023-04-03T17:22:46.265Z,3.67
2023-04-03T17:25:14.173Z,2.20
2023-04-03T17:27:41.110Z,3.58
2023-04-03T17:30:08.870Z,4.63
2023-04-03T17:32:35.978Z,6.75
2023-04-03T17:35:02.952Z,2.03
2023-04-03T17:37:29.973Z,2.92
2023-04-03T17:39:56.989Z,3.08
2023-04-03T17:42:23.929Z,2.47
2023-04-03T17:44:50.880Z,2.53
2023-04-03T17:47:17.873Z,5.05
2023-04-03T17:49:44.850Z,1.92
2023-04-03T17:52:12.316Z,1.70
2023-04-03T17:54:39.526Z,1.85
2023-04-03T17:57:06.833Z,2.22
2023-04-03T17:59:34.164Z,2.00
2023-04-03T18:02:01.404Z,2.13
2023-04-03T18:04:31.048Z,1.85
2023-04-03T18:06:58.046Z,1.83
2023-04-03T18:09:34.158Z,2.42
2023-04-03T18:12:02.515Z,2.10
2023-04-03T18:14:29.523Z,1.80
2023-04-03T18:16:59.389Z,2.00
2023-04-03T18:19:28.438Z,1.98
2023-04-03T18:21:57.988Z,2.78
2023-04-03T18:24:24.999Z,2.08
2023-04-03T18:26:56.962Z,2.20
2023-04-03T18:29:24.007Z,1.90
2023-04-03T18:31:52.871Z,2.10
2023-04-03T18:34:19.873Z,2.30
2023-04-03T18:36:47.663Z,2.55
2023-04-03T18:39:15.028Z,2.40
2023-04-03T18:41:42.076Z,2.75
2023-04-03T18:44:10.906Z,3.10
2023-04-03T18:49:10.039Z,2.28
2023-04-03T18:51:39.305Z,2.55
2023-04-03T18:54:06.776Z,2.60
2023-04-03T18:56:33.681Z,4.57
2023-04-03T18:59:00.730Z,2.60
2023-04-03T19:01:27.746Z,3.08
2023-04-03T19:03:54.717Z,2.80
2023-04-03T19:06:21.671Z,2.80
2023-04-03T19:08:51.631Z,2.50
2023-04-03T19:11:18.600Z,2.78
2023-04-03T19:14:04.498Z,2.38
2023-04-03T19:16:34.297Z,2.28
2023-04-03T19:19:03.352Z,2.53
2023-04-03T19:21:30.672Z,2.15
2023-04-03T19:23:59.396Z,2.30
2023-04-03T19:26:29.240Z,2.55
2023-04-03T19:28:56.165Z,2.15
2023-04-03T19:31:23.440Z,3.17
2023-04-03T19:33:52.607Z,2.88
2023-04-03T19:36:23.265Z,3.35
2023-04-03T19:39:00.437Z,3.13
2023-04-03T19:41:28.785Z,2.63
2023-04-03T19:43:56.319Z,2.50
2023-04-03T19:46:24.825Z,2.08
2023-04-03T19:48:52.307Z,2.55
2023-04-03T19:51:19.526Z,2.22
2023-04-03T19:53:47.612Z,2.15
2023-04-03T19:56:16.679Z,2.67
2023-04-03T19:58:43.794Z,2.92
2023-04-03T20:01:11.460Z,2.30
2023-04-03T20:03:39.283Z,2.80
2023-04-03T20:06:06.465Z,2.67
2023-04-03T20:08:33.771Z,2.50
2023-04-03T20:11:00.801Z,2.72
2023-04-03T20:13:28.291Z,2.15
2023-04-03T20:15:56.254Z,2.47
2023-04-03T20:18:23.405Z,2.60
2023-04-03T20:20:57.780Z,2.67
2023-04-03T20:23:24.859Z,2.13
2023-04-03T20:26:05.965Z,2.47
2023-04-03T20:28:36.388Z,2.30
2023-04-03T20:31:03.953Z,2.40
2023-04-03T20:33:31.017Z,2.40
2023-04-03T20:35:58.141Z,2.53
2023-04-03T20:38:25.419Z,2.30
2023-04-03T20:40:52.544Z,2.53
2023-04-03T20:43:21.757Z,2.13
2023-04-03T20:45:49.541Z,2.25
2023-04-03T20:48:18.130Z,2.85
2023-04-03T20:50:46.074Z,2.88
2023-04-03T20:53:13.415Z,2.95
2023-04-03T20:55:41.290Z,2.65
2023-04-03T20:58:08.679Z,2.92
2023-04-03T21:00:37.656Z,3.00
2023-04-03T21:03:06.134Z,2.80
2023-04-03T21:05:35.124Z,2.88
2023-04-03T21:08:40.312Z,2.70
2023-04-03T21:11:45.105Z,2.33
2023-04-03T21:14:49.602Z,2.58
2023-04-03T21:17:16.519Z,3.30
2023-04-03T21:19:46.716Z,3.13
2023-04-03T21:22:14.028Z,3.20
2023-04-03T21:24:41.129Z,3.28
2023-04-03T21:27:08.309Z,2.88
2023-04-03T21:29:35.301Z,2.90
2023-04-03T21:32:02.323Z,2.95
2023-04-03T21:34:30.480Z,3.33
2023-04-03T21:37:04.864Z,2.78
2023-04-03T21:39:32.205Z,3.08
2023-04-03T21:41:59.179Z,3.10
2023-04-03T21:44:28.509Z,2.60
2023-04-03T21:46:55.653Z,2.70
2023-04-03T21:49:23.691Z,3.22
2023-04-03T21:51:51.809Z,3.17
2023-04-03T21:54:19.243Z,4.18
2023-04-03T21:56:48.409Z,2.88
2023-04-03T21:59:15.927Z,2.90
2023-04-03T22:01:43.623Z,2.88
2023-04-03T22:04:11.002Z,3.13
2023-04-03T22:06:38.230Z,2.50
2023-04-03T22:09:05.337Z,2.90
2023-04-03T22:11:32.369Z,2.80
2023-04-03T22:14:00.216Z,3.13
2023-04-03T22:16:27.558Z,2.90
2023-04-03T22:18:55.084Z,2.80
2023-04-03T22:21:22.544Z,2.70
2023-04-03T22:23:49.545Z,2.83
2023-04-03T22:26:16.539Z,3.40
2023-04-03T22:28:46.955Z,2.90
2023-04-03T22:31:14.925Z,2.65
2023-04-03T22:33:44.111Z,2.60
2023-04-03T22:36:11.980Z,2.90
2023-04-03T22:38:39.404Z,3.10
2023-04-03T22:41:07.209Z,3.00
2023-04-03T22:43:35.262Z,2.90
2023-04-03T22:46:03.057Z,2.53
2023-04-03T22:48:30.987Z,2.92
2023-04-03T22:50:59.146Z,2.90
2023-04-03T22:53:26.147Z,3.08
2023-04-03T22:56:00.495Z,2.70
2023-04-03T22:58:28.922Z,3.55
2023-04-03T23:01:19.490Z,3.20
2023-04-03T23:03:46.790Z,3.20
2023-04-03T23:06:14.299Z,3.30
2023-04-03T23:08:42.108Z,3.30
2023-04-03T23:11:12.210Z,3.30
2023-04-03T23:13:39.270Z,3.28
2023-04-03T23:16:06.811Z,3.28
2023-04-03T23:18:33.992Z,3.42
2023-04-03T23:21:01.769Z,3.40
2023-04-03T23:23:28.902Z,2.90
2023-04-03T23:25:57.220Z,3.45
2023-04-03T23:28:24.417Z,3.05
2023-04-03T23:31:00.539Z,3.60
2023-04-03T23:33:28.145Z,2.92
2023-04-03T23:35:55.111Z,3.63
2023-04-03T23:38:22.122Z,2.92
2023-04-03T23:40:49.113Z,3.13
2023-04-03T23:43:16.256Z,3.20
2023-04-03T23:45:46.829Z,3.00
2023-04-03T23:48:14.210Z,3.33
2023-04-03T23:50:42.653Z,2.90
2023-04-03T23:53:09.920Z,3.30
2023-04-03T23:55:36.976Z,3.03
2023-04-03T23:58:04.116Z,3.33
